sensor_id;sensor_type;location;lat;lon;timestamp;P1;durP1;ratioP1;P2;durP2;ratioP2
67108;SDS011;54027;50.786;7.058;2023-04-21T00:00:48;37.63;;;23.60;;
67108;SDS011;54027;50.786;7.058;2023-04-21T00:03:13;37.53;;;24.75;;
67108;SDS011;54027;50.786;7.058;2023-04-21T00:05:39;34.95;;;23.30;;
67108;SDS011;54027;50.786;7.058;2023-04-21T00:08:06;37.65;;;24.67;;
67108;SDS011;54027;50.786;7.058;2023-04-21T00:10:32;34.97;;;23.85;;
67108;SDS011;54027;50.786;7.058;2023-04-21T00:12:58;37.20;;;23.77;;
67108;SDS011;54027;50.786;7.058;2023-04-21T00:15:24;37.55;;;23.83;;
67108;SDS011;54027;50.786;7.058;2023-04-21T00:17:49;37.38;;;24.02;;
67108;SDS011;54027;50.786;7.058;2023-04-21T00:20:15;35.53;;;22.73;;
67108;SDS011;54027;50.786;7.058;2023-04-21T00:22:40;37.92;;;23.33;;
67108;SDS011;54027;50.786;7.058;2023-04-21T00:25:06;34.33;;;22.80;;
67108;SDS011;54027;50.786;7.058;2023-04-21T00:27:31;33.75;;;23.08;;
67108;SDS011;54027;50.786;7.058;2023-04-21T00:29:57;36.08;;;23.10;;
67108;SDS011;54027;50.786;7.058;2023-04-21T00:32:22;34.70;;;22.35;;
67108;SDS011;54027;50.786;7.058;2023-04-21T00:34:47;34.58;;;22.92;;
67108;SDS011;54027;50.786;7.058;2023-04-21T00:37:13;39.30;;;24.75;;
67108;SDS011;54027;50.786;7.058;2023-04-21T00:39:38;36.72;;;23.17;;
67108;SDS011;54027;50.786;7.058;2023-04-21T00:42:04;34.13;;;23.77;;
67108;SDS011;54027;50.786;7.058;2023-04-21T00:44:29;37.10;;;23.50;;
67108;SDS011;54027;50.786;7.058;2023-04-21T00:46:54;37.53;;;24.92;;
67108;SDS011;54027;50.786;7.058;2023-04-21T00:49:21;39.25;;;24.65;;
67108;SDS011;54027;50.786;7.058;2023-04-21T00:51:48;36.80;;;24.15;;
67108;SDS011;54027;50.786;7.058;2023-04-21T00:54:14;38.83;;;24.73;;
67108;SDS011;54027;50.786;7.058;2023-04-21T00:56:41;35.17;;;24.13;;
67108;SDS011;54027;50.786;7.058;2023-04-21T00:59:07;37.45;;;24.52;;
67108;SDS011;54027;50.786;7.058;2023-04-21T01:01:32;35.83;;;23.83;;
67108;SDS011;54027;50.786;7.058;2023-04-21T01:04:01;38.60;;;25.65;;
67108;SDS011;54027;50.786;7.058;2023-04-21T01:06:29;40.30;;;25.10;;
67108;SDS011;54027;50.786;7.058;2023-04-21T01:08:58;39.15;;;25.50;;
67108;SDS011;54027;50.786;7.058;2023-04-21T01:11:24;41.40;;;24.45;;
67108;SDS011;54027;50.786;7.058;2023-04-21T01:13:53;38.88;;;24.10;;
67108;SDS011;54027;50.786;7.058;2023-04-21T01:16:19;37.03;;;23.75;;
67108;SDS011;54027;50.786;7.058;2023-04-21T01:18:45;35.60;;;22.92;;
67108;SDS011;54027;50.786;7.058;2023-04-21T01:21:11;34.42;;;22.13;;
67108;SDS011;54027;50.786;7.058;2023-04-21T01:23:41;32.65;;;22.02;;
67108;SDS011;54027;50.786;7.058;2023-04-21T01:26:07;32.90;;;22.45;;
67108;SDS011;54027;50.786;7.058;2023-04-21T01:28:33;36.10;;;24.08;;
67108;SDS011;54027;50.786;7.058;2023-04-21T01:30:58;35.92;;;23.40;;
67108;SDS011;54027;50.786;7.058;2023-04-21T01:33:24;37.80;;;24.75;;
67108;SDS011;54027;50.786;7.058;2023-04-21T01:35:49;35.97;;;23.30;;
67108;SDS011;54027;50.786;7.058;2023-04-21T01:38:15;35.25;;;22.63;;
67108;SDS011;54027;50.786;7.058;2023-04-21T01:40:45;37.88;;;23.65;;
67108;SDS011;54027;50.786;7.058;2023-04-21T01:43:13;39.35;;;25.58;;
67108;SDS011;54027;50.786;7.058;2023-04-21T01:45:39;38.42;;;25.35;;
67108;SDS011;54027;50.786;7.058;2023-04-21T01:48:05;39.03;;;25.17;;
67108;SDS011;54027;50.786;7.058;2023-04-21T01:50:30;40.38;;;25.50;;
67108;SDS011;54027;50.786;7.058;2023-04-21T01:52:56;40.17;;;24.50;;
67108;SDS011;54027;50.786;7.058;2023-04-21T01:55:21;38.67;;;24.95;;
67108;SDS011;54027;50.786;7.058;2023-04-21T01:57:47;40.08;;;26.30;;
67108;SDS011;54027;50.786;7.058;2023-04-21T02:00:12;44.30;;;27.15;;
67108;SDS011;54027;50.786;7.058;2023-04-21T02:02:38;42.60;;;26.55;;
67108;SDS011;54027;50.786;7.058;2023-04-21T02:05:04;42.08;;;26.17;;
67108;SDS011;54027;50.786;7.058;2023-04-21T02:07:29;43.67;;;25.92;;
67108;SDS011;54027;50.786;7.058;2023-04-21T02:09:55;41.00;;;27.00;;
67108;SDS011;54027;50.786;7.058;2023-04-21T02:12:20;38.92;;;25.20;;
67108;SDS011;54027;50.786;7.058;2023-04-21T02:14:46;43.45;;;27.05;;
67108;SDS011;54027;50.786;7.058;2023-04-21T02:17:12;42.20;;;26.73;;
67108;SDS011;54027;50.786;7.058;2023-04-21T02:19:38;44.85;;;27.48;;
67108;SDS011;54027;50.786;7.058;2023-04-21T02:22:04;45.03;;;27.98;;
67108;SDS011;54027;50.786;7.058;2023-04-21T02:24:31;40.35;;;26.33;;
67108;SDS011;54027;50.786;7.058;2023-04-21T02:26:56;44.92;;;26.95;;
67108;SDS011;54027;50.786;7.058;2023-04-21T02:29:22;40.75;;;26.35;;
67108;SDS011;54027;50.786;7.058;2023-04-21T02:31:48;42.90;;;26.70;;
67108;SDS011;54027;50.786;7.058;2023-04-21T02:34:13;38.80;;;24.95;;
67108;SDS011;54027;50.786;7.058;2023-04-21T02:36:38;40.15;;;24.25;;
67108;SDS011;54027;50.786;7.058;2023-04-21T02:39:04;36.65;;;23.50;;
67108;SDS011;54027;50.786;7.058;2023-04-21T02:41:29;38.33;;;24.00;;
67108;SDS011;54027;50.786;7.058;2023-04-21T02:43:55;33.13;;;20.60;;
67108;SDS011;54027;50.786;7.058;2023-04-21T02:46:20;38.20;;;23.48;;
67108;SDS011;54027;50.786;7.058;2023-04-21T02:48:46;37.50;;;23.55;;
67108;SDS011;54027;50.786;7.058;2023-04-21T02:51:11;44.22;;;26.92;;
67108;SDS011;54027;50.786;7.058;2023-04-21T02:53:39;41.78;;;25.35;;
67108;SDS011;54027;50.786;7.058;2023-04-21T02:56:05;32.58;;;21.45;;
67108;SDS011;54027;50.786;7.058;2023-04-21T02:58:33;38.17;;;22.52;;
67108;SDS011;54027;50.786;7.058;2023-04-21T03:00:59;35.13;;;22.58;;
67108;SDS011;54027;50.786;7.058;2023-04-21T03:03:25;38.72;;;24.42;;
67108;SDS011;54027;50.786;7.058;2023-04-21T03:05:55;38.38;;;23.33;;
67108;SDS011;54027;50.786;7.058;2023-04-21T03:08:23;42.13;;;25.75;;
67108;SDS011;54027;50.786;7.058;2023-04-21T03:10:49;46.33;;;25.83;;
67108;SDS011;54027;50.786;7.058;2023-04-21T03:13:14;45.60;;;24.95;;
67108;SDS011;54027;50.786;7.058;2023-04-21T03:15:40;45.00;;;26.38;;
67108;SDS011;54027;50.786;7.058;2023-04-21T03:18:06;43.42;;;25.02;;
67108;SDS011;54027;50.786;7.058;2023-04-21T03:20:31;42.47;;;25.15;;
67108;SDS011;54027;50.786;7.058;2023-04-21T03:22:56;48.00;;;27.40;;
67108;SDS011;54027;50.786;7.058;2023-04-21T03:25:22;49.45;;;28.08;;
67108;SDS011;54027;50.786;7.058;2023-04-21T03:27:47;52.42;;;28.73;;
67108;SDS011;54027;50.786;7.058;2023-04-21T03:30:13;50.10;;;28.15;;
67108;SDS011;54027;50.786;7.058;2023-04-21T03:32:38;50.10;;;27.63;;
67108;SDS011;54027;50.786;7.058;2023-04-21T03:35:04;46.65;;;27.25;;
67108;SDS011;54027;50.786;7.058;2023-04-21T03:37:30;45.13;;;26.00;;
67108;SDS011;54027;50.786;7.058;2023-04-21T03:39:55;46.35;;;26.55;;
67108;SDS011;54027;50.786;7.058;2023-04-21T03:42:21;38.78;;;23.63;;
67108;SDS011;54027;50.786;7.058;2023-04-21T03:44:46;43.88;;;25.25;;
67108;SDS011;54027;50.786;7.058;2023-04-21T03:47:11;49.80;;;26.70;;
67108;SDS011;54027;50.786;7.058;2023-04-21T03:49:37;51.08;;;28.98;;
67108;SDS011;54027;50.786;7.058;2023-04-21T03:52:02;52.55;;;26.95;;
67108;SDS011;54027;50.786;7.058;2023-04-21T03:54:28;49.65;;;27.63;;
67108;SDS011;54027;50.786;7.058;2023-04-21T03:56:53;46.90;;;26.00;;
67108;SDS011;54027;50.786;7.058;2023-04-21T03:59:19;50.05;;;26.15;;
67108;SDS011;54027;50.786;7.058;2023-04-21T04:01:44;45.70;;;25.75;;
67108;SDS011;54027;50.786;7.058;2023-04-21T04:04:09;48.00;;;27.02;;
67108;SDS011;54027;50.786;7.058;2023-04-21T04:06:35;50.55;;;26.08;;
67108;SDS011;54027;50.786;7.058;2023-04-21T04:09:00;46.17;;;25.38;;
67108;SDS011;54027;50.786;7.058;2023-04-21T04:11:28;42.97;;;23.52;;
67108;SDS011;54027;50.786;7.058;2023-04-21T04:13:54;44.30;;;24.02;;
67108;SDS011;54027;50.786;7.058;2023-04-21T04:16:20;45.13;;;25.40;;
67108;SDS011;54027;50.786;7.058;2023-04-21T04:18:45;43.38;;;24.15;;
67108;SDS011;54027;50.786;7.058;2023-04-21T04:21:11;50.22;;;27.55;;
67108;SDS011;54027;50.786;7.058;2023-04-21T04:23:36;38.78;;;23.38;;
67108;SDS011;54027;50.786;7.058;2023-04-21T04:26:01;47.92;;;25.65;;
67108;SDS011;54027;50.786;7.058;2023-04-21T04:28:29;42.88;;;26.30;;
67108;SDS011;54027;50.786;7.058;2023-04-21T04:30:55;50.40;;;25.95;;
67108;SDS011;54027;50.786;7.058;2023-04-21T04:33:20;44.95;;;25.15;;
67108;SDS011;54027;50.786;7.058;2023-04-21T04:35:46;47.85;;;27.92;;
67108;SDS011;54027;50.786;7.058;2023-04-21T04:38:11;42.65;;;24.35;;
67108;SDS011;54027;50.786;7.058;2023-04-21T04:40:38;44.60;;;24.98;;
67108;SDS011;54027;50.786;7.058;2023-04-21T04:43:04;55.53;;;30.92;;
67108;SDS011;54027;50.786;7.058;2023-04-21T04:45:30;62.63;;;31.95;;
67108;SDS011;54027;50.786;7.058;2023-04-21T04:47:57;59.53;;;30.88;;
67108;SDS011;54027;50.786;7.058;2023-04-21T04:50:23;57.67;;;30.08;;
67108;SDS011;54027;50.786;7.058;2023-04-21T04:52:48;58.35;;;30.27;;
67108;SDS011;54027;50.786;7.058;2023-04-21T04:55:14;56.60;;;29.75;;
67108;SDS011;54027;50.786;7.058;2023-04-21T04:57:39;52.28;;;28.88;;
67108;SDS011;54027;50.786;7.058;2023-04-21T05:00:06;55.53;;;30.27;;
67108;SDS011;54027;50.786;7.058;2023-04-21T05:02:35;50.13;;;29.33;;
67108;SDS011;54027;50.786;7.058;2023-04-21T05:05:01;53.60;;;28.15;;
67108;SDS011;54027;50.786;7.058;2023-04-21T05:07:26;50.95;;;28.52;;
67108;SDS011;54027;50.786;7.058;2023-04-21T05:09:52;56.30;;;28.85;;
67108;SDS011;54027;50.786;7.058;2023-04-21T05:12:18;43.83;;;25.55;;
67108;SDS011;54027;50.786;7.058;2023-04-21T05:14:43;54.45;;;28.25;;
67108;SDS011;54027;50.786;7.058;2023-04-21T05:17:09;52.92;;;30.88;;
67108;SDS011;54027;50.786;7.058;2023-04-21T05:19:34;52.97;;;29.50;;
67108;SDS011;54027;50.786;7.058;2023-04-21T05:22:01;44.25;;;26.00;;
67108;SDS011;54027;50.786;7.058;2023-04-21T05:24:27;47.35;;;26.48;;
67108;SDS011;54027;50.786;7.058;2023-04-21T05:26:52;51.90;;;27.35;;
67108;SDS011;54027;50.786;7.058;2023-04-21T05:29:18;50.88;;;26.58;;
67108;SDS011;54027;50.786;7.058;2023-04-21T05:31:43;47.78;;;27.38;;
67108;SDS011;54027;50.786;7.058;2023-04-21T05:34:09;56.55;;;29.40;;
67108;SDS011;54027;50.786;7.058;2023-04-21T05:36:34;57.85;;;31.48;;
67108;SDS011;54027;50.786;7.058;2023-04-21T05:39:00;54.25;;;29.42;;
67108;SDS011;54027;50.786;7.058;2023-04-21T05:41:25;49.95;;;27.13;;
67108;SDS011;54027;50.786;7.058;2023-04-21T05:43:50;52.00;;;26.30;;
67108;SDS011;54027;50.786;7.058;2023-04-21T05:46:16;51.95;;;28.33;;
67108;SDS011;54027;50.786;7.058;2023-04-21T05:48:41;54.58;;;27.77;;
67108;SDS011;54027;50.786;7.058;2023-04-21T05:51:09;56.58;;;29.20;;
67108;SDS011;54027;50.786;7.058;2023-04-21T05:53:37;48.17;;;27.33;;
67108;SDS011;54027;50.786;7.058;2023-04-21T05:56:02;46.85;;;26.80;;
67108;SDS011;54027;50.786;7.058;2023-04-21T05:58:28;52.00;;;29.58;;
67108;SDS011;54027;50.786;7.058;2023-04-21T06:00:53;51.33;;;27.88;;
67108;SDS011;54027;50.786;7.058;2023-04-21T06:03:19;50.22;;;28.23;;
67108;SDS011;54027;50.786;7.058;2023-04-21T06:05:44;53.70;;;28.52;;
67108;SDS011;54027;50.786;7.058;2023-04-21T06:08:11;53.60;;;28.67;;
67108;SDS011;54027;50.786;7.058;2023-04-21T06:10:36;54.80;;;29.15;;
67108;SDS011;54027;50.786;7.058;2023-04-21T06:13:02;51.13;;;27.25;;
67108;SDS011;54027;50.786;7.058;2023-04-21T06:15:27;58.50;;;32.15;;
67108;SDS011;54027;50.786;7.058;2023-04-21T06:17:52;60.10;;;30.33;;
67108;SDS011;54027;50.786;7.058;2023-04-21T06:20:21;59.92;;;31.95;;
67108;SDS011;54027;50.786;7.058;2023-04-21T06:22:46;54.95;;;29.90;;
67108;SDS011;54027;50.786;7.058;2023-04-21T06:25:11;50.08;;;29.88;;
67108;SDS011;54027;50.786;7.058;2023-04-21T06:27:37;45.35;;;27.95;;
67108;SDS011;54027;50.786;7.058;2023-04-21T06:30:02;50.08;;;29.48;;
67108;SDS011;54027;50.786;7.058;2023-04-21T06:32:28;47.03;;;28.08;;
67108;SDS011;54027;50.786;7.058;2023-04-21T06:34:53;46.83;;;27.27;;
67108;SDS011;54027;50.786;7.058;2023-04-21T06:37:19;42.83;;;26.48;;
67108;SDS011;54027;50.786;7.058;2023-04-21T06:39:44;46.65;;;27.65;;
67108;SDS011;54027;50.786;7.058;2023-04-21T06:42:09;45.60;;;27.52;;
67108;SDS011;54027;50.786;7.058;2023-04-21T06:44:35;46.33;;;28.40;;
67108;SDS011;54027;50.786;7.058;2023-04-21T06:47:02;46.17;;;27.00;;
67108;SDS011;54027;50.786;7.058;2023-04-21T06:49:27;42.35;;;26.70;;
67108;SDS011;54027;50.786;7.058;2023-04-21T06:51:53;42.28;;;24.55;;
67108;SDS011;54027;50.786;7.058;2023-04-21T06:54:18;43.25;;;26.63;;
67108;SDS011;54027;50.786;7.058;2023-04-21T06:56:43;46.50;;;26.40;;
67108;SDS011;54027;50.786;7.058;2023-04-21T06:59:09;41.15;;;25.92;;
67108;SDS011;54027;50.786;7.058;2023-04-21T07:01:34;39.00;;;24.80;;
67108;SDS011;54027;50.786;7.058;2023-04-21T07:04:00;37.17;;;23.73;;
67108;SDS011;54027;50.786;7.058;2023-04-21T07:06:25;42.80;;;25.08;;
67108;SDS011;54027;50.786;7.058;2023-04-21T07:08:51;40.05;;;23.83;;
67108;SDS011;54027;50.786;7.058;2023-04-21T07:11:16;39.55;;;24.35;;
67108;SDS011;54027;50.786;7.058;2023-04-21T07:13:42;37.22;;;21.85;;
67108;SDS011;54027;50.786;7.058;2023-04-21T07:16:07;34.60;;;21.58;;
67108;SDS011;54027;50.786;7.058;2023-04-21T07:18:32;36.80;;;22.08;;
67108;SDS011;54027;50.786;7.058;2023-04-21T07:20:58;38.10;;;21.83;;
67108;SDS011;54027;50.786;7.058;2023-04-21T07:23:24;38.08;;;22.70;;
67108;SDS011;54027;50.786;7.058;2023-04-21T07:25:50;35.58;;;22.55;;
67108;SDS011;54027;50.786;7.058;2023-04-21T07:28:15;37.80;;;21.83;;
67108;SDS011;54027;50.786;7.058;2023-04-21T07:30:41;35.67;;;21.08;;
67108;SDS011;54027;50.786;7.058;2023-04-21T07:33:06;34.78;;;21.13;;
67108;SDS011;54027;50.786;7.058;2023-04-21T07:35:32;36.38;;;22.00;;
67108;SDS011;54027;50.786;7.058;2023-04-21T07:37:58;32.80;;;19.85;;
67108;SDS011;54027;50.786;7.058;2023-04-21T07:40:23;34.80;;;22.13;;
67108;SDS011;54027;50.786;7.058;2023-04-21T07:42:49;35.95;;;22.02;;
67108;SDS011;54027;50.786;7.058;2023-04-21T07:45:14;32.25;;;19.73;;
67108;SDS011;54027;50.786;7.058;2023-04-21T07:47:40;28.70;;;18.85;;
67108;SDS011;54027;50.786;7.058;2023-04-21T07:50:05;34.05;;;20.77;;
67108;SDS011;54027;50.786;7.058;2023-04-21T07:52:31;32.03;;;20.15;;
67108;SDS011;54027;50.786;7.058;2023-04-21T07:54:57;30.20;;;18.92;;
67108;SDS011;54027;50.786;7.058;2023-04-21T07:57:22;32.40;;;21.00;;
67108;SDS011;54027;50.786;7.058;2023-04-21T07:59:48;29.35;;;19.00;;
67108;SDS011;54027;50.786;7.058;2023-04-21T08:02:13;29.58;;;19.17;;
67108;SDS011;54027;50.786;7.058;2023-04-21T08:04:39;29.63;;;18.58;;
67108;SDS011;54027;50.786;7.058;2023-04-21T08:07:04;29.50;;;18.60;;
67108;SDS011;54027;50.786;7.058;2023-04-21T08:09:29;25.17;;;17.25;;
67108;SDS011;54027;50.786;7.058;2023-04-21T08:11:55;26.77;;;18.10;;
67108;SDS011;54027;50.786;7.058;2023-04-21T08:14:21;26.83;;;18.20;;
67108;SDS011;54027;50.786;7.058;2023-04-21T08:16:47;25.80;;;17.83;;
67108;SDS011;54027;50.786;7.058;2023-04-21T08:19:12;28.17;;;18.15;;
67108;SDS011;54027;50.786;7.058;2023-04-21T08:21:38;27.73;;;18.30;;
67108;SDS011;54027;50.786;7.058;2023-04-21T08:24:03;26.48;;;18.30;;
67108;SDS011;54027;50.786;7.058;2023-04-21T08:26:29;26.40;;;16.52;;
67108;SDS011;54027;50.786;7.058;2023-04-21T08:28:57;24.83;;;16.85;;
67108;SDS011;54027;50.786;7.058;2023-04-21T08:31:24;26.38;;;17.15;;
67108;SDS011;54027;50.786;7.058;2023-04-21T08:33:49;26.90;;;18.60;;
67108;SDS011;54027;50.786;7.058;2023-04-21T08:36:15;26.77;;;18.08;;
67108;SDS011;54027;50.786;7.058;2023-04-21T08:38:41;25.38;;;17.25;;
67108;SDS011;54027;50.786;7.058;2023-04-21T08:41:08;25.35;;;16.75;;
67108;SDS011;54027;50.786;7.058;2023-04-21T08:43:33;24.83;;;17.15;;
67108;SDS011;54027;50.786;7.058;2023-04-21T08:45:59;27.75;;;17.73;;
67108;SDS011;54027;50.786;7.058;2023-04-21T08:48:26;26.75;;;17.27;;
67108;SDS011;54027;50.786;7.058;2023-04-21T08:50:53;23.23;;;15.88;;
67108;SDS011;54027;50.786;7.058;2023-04-21T08:53:19;24.90;;;16.77;;
67108;SDS011;54027;50.786;7.058;2023-04-21T08:55:45;24.35;;;17.33;;
67108;SDS011;54027;50.786;7.058;2023-04-21T08:58:17;24.60;;;16.25;;
67108;SDS011;54027;50.786;7.058;2023-04-21T09:00:42;24.48;;;15.52;;
67108;SDS011;54027;50.786;7.058;2023-04-21T09:03:08;25.15;;;16.27;;
67108;SDS011;54027;50.786;7.058;2023-04-21T09:05:34;24.58;;;16.85;;
67108;SDS011;54027;50.786;7.058;2023-04-21T09:08:11;22.90;;;15.10;;
67108;SDS011;54027;50.786;7.058;2023-04-21T09:10:44;22.95;;;15.82;;
67108;SDS011;54027;50.786;7.058;2023-04-21T09:13:11;21.77;;;15.13;;
67108;SDS011;54027;50.786;7.058;2023-04-21T09:15:37;22.65;;;15.25;;
67108;SDS011;54027;50.786;7.058;2023-04-21T09:18:16;21.70;;;14.82;;
67108;SDS011;54027;50.786;7.058;2023-04-21T09:20:44;22.92;;;15.38;;
67108;SDS011;54027;50.786;7.058;2023-04-21T09:23:11;22.20;;;15.32;;
67108;SDS011;54027;50.786;7.058;2023-04-21T09:25:40;24.55;;;16.33;;
67108;SDS011;54027;50.786;7.058;2023-04-21T09:28:08;22.33;;;15.68;;
67108;SDS011;54027;50.786;7.058;2023-04-21T09:30:35;23.50;;;15.95;;
67108;SDS011;54027;50.786;7.058;2023-04-21T09:33:02;23.55;;;16.17;;
67108;SDS011;54027;50.786;7.058;2023-04-21T09:35:27;23.35;;;15.35;;
67108;SDS011;54027;50.786;7.058;2023-04-21T09:37:53;23.88;;;16.50;;
67108;SDS011;54027;50.786;7.058;2023-04-21T09:40:19;22.25;;;15.63;;
67108;SDS011;54027;50.786;7.058;2023-04-21T09:42:44;21.98;;;15.25;;
67108;SDS011;54027;50.786;7.058;2023-04-21T09:45:10;22.63;;;15.50;;
67108;SDS011;54027;50.786;7.058;2023-04-21T09:47:41;24.27;;;16.00;;
67108;SDS011;54027;50.786;7.058;2023-04-21T09:50:07;23.52;;;15.10;;
67108;SDS011;54027;50.786;7.058;2023-04-21T09:52:39;24.27;;;15.65;;
67108;SDS011;54027;50.786;7.058;2023-04-21T09:55:10;22.23;;;15.18;;
67108;SDS011;54027;50.786;7.058;2023-04-21T09:57:40;23.58;;;16.00;;
67108;SDS011;54027;50.786;7.058;2023-04-21T10:00:07;25.33;;;15.73;;
67108;SDS011;54027;50.786;7.058;2023-04-21T10:02:36;21.10;;;15.00;;
67108;SDS011;54027;50.786;7.058;2023-04-21T10:05:07;25.80;;;16.55;;
67108;SDS011;54027;50.786;7.058;2023-04-21T10:07:34;25.05;;;17.17;;
67108;SDS011;54027;50.786;7.058;2023-04-21T10:10:01;28.00;;;17.60;;
67108;SDS011;54027;50.786;7.058;2023-04-21T10:12:27;26.10;;;17.73;;
67108;SDS011;54027;50.786;7.058;2023-04-21T10:14:53;24.95;;;17.25;;
67108;SDS011;54027;50.786;7.058;2023-04-21T10:17:24;23.85;;;16.77;;
67108;SDS011;54027;50.786;7.058;2023-04-21T10:22:30;23.77;;;16.77;;
67108;SDS011;54027;50.786;7.058;2023-04-21T10:24:59;22.30;;;15.10;;
67108;SDS011;54027;50.786;7.058;2023-04-21T10:27:33;19.90;;;14.70;;
67108;SDS011;54027;50.786;7.058;2023-04-21T10:30:00;18.90;;;13.98;;
67108;SDS011;54027;50.786;7.058;2023-04-21T10:32:41;21.58;;;14.00;;
67108;SDS011;54027;50.786;7.058;2023-04-21T10:35:13;17.60;;;12.50;;
67108;SDS011;54027;50.786;7.058;2023-04-21T10:37:40;18.80;;;13.15;;
67108;SDS011;54027;50.786;7.058;2023-04-21T10:40:07;17.65;;;12.27;;
67108;SDS011;54027;50.786;7.058;2023-04-21T10:42:54;18.45;;;11.65;;
67108;SDS011;54027;50.786;7.058;2023-04-21T10:45:21;17.88;;;12.02;;
67108;SDS011;54027;50.786;7.058;2023-04-21T10:47:50;18.88;;;11.88;;
67108;SDS011;54027;50.786;7.058;2023-04-21T10:52:46;16.02;;;11.73;;
67108;SDS011;54027;50.786;7.058;2023-04-21T10:55:17;17.02;;;11.13;;
67108;SDS011;54027;50.786;7.058;2023-04-21T10:57:44;14.98;;;10.35;;
67108;SDS011;54027;50.786;7.058;2023-04-21T11:00:12;14.95;;;9.98;;
67108;SDS011;54027;50.786;7.058;2023-04-21T11:02:39;15.10;;;10.20;;
67108;SDS011;54027;50.786;7.058;2023-04-21T11:05:06;16.05;;;10.25;;
67108;SDS011;54027;50.786;7.058;2023-04-21T11:07:33;13.50;;;9.55;;
67108;SDS011;54027;50.786;7.058;2023-04-21T11:10:00;14.25;;;10.13;;
67108;SDS011;54027;50.786;7.058;2023-04-21T11:12:30;13.55;;;9.00;;
67108;SDS011;54027;50.786;7.058;2023-04-21T11:15:09;12.82;;;9.25;;
67108;SDS011;54027;50.786;7.058;2023-04-21T11:17:37;14.60;;;9.82;;
67108;SDS011;54027;50.786;7.058;2023-04-21T11:20:03;13.52;;;9.77;;
67108;SDS011;54027;50.786;7.058;2023-04-21T11:22:30;15.07;;;9.73;;
67108;SDS011;54027;50.786;7.058;2023-04-21T11:24:56;14.13;;;9.75;;
67108;SDS011;54027;50.786;7.058;2023-04-21T11:27:24;11.40;;;8.80;;
67108;SDS011;54027;50.786;7.058;2023-04-21T11:29:51;13.10;;;9.25;;
67108;SDS011;54027;50.786;7.058;2023-04-21T11:32:16;15.20;;;9.10;;
67108;SDS011;54027;50.786;7.058;2023-04-21T11:34:42;12.70;;;8.52;;
67108;SDS011;54027;50.786;7.058;2023-04-21T11:37:09;11.75;;;8.13;;
67108;SDS011;54027;50.786;7.058;2023-04-21T11:39:41;12.10;;;7.85;;
67108;SDS011;54027;50.786;7.058;2023-04-21T11:42:07;9.60;;;6.72;;
67108;SDS011;54027;50.786;7.058;2023-04-21T11:44:34;14.38;;;6.25;;
67108;SDS011;54027;50.786;7.058;2023-04-21T11:47:11;10.15;;;7.10;;
67108;SDS011;54027;50.786;7.058;2023-04-21T11:49:42;10.18;;;6.47;;
67108;SDS011;54027;50.786;7.058;2023-04-21T11:52:09;9.52;;;7.38;;
67108;SDS011;54027;50.786;7.058;2023-04-21T11:54:34;9.57;;;7.25;;
67108;SDS011;54027;50.786;7.058;2023-04-21T11:57:00;7.78;;;6.20;;
67108;SDS011;54027;50.786;7.058;2023-04-21T11:59:26;9.63;;;6.07;;
67108;SDS011;54027;50.786;7.058;2023-04-21T12:01:53;7.05;;;5.50;;
67108;SDS011;54027;50.786;7.058;2023-04-21T12:04:20;6.43;;;4.97;;
67108;SDS011;54027;50.786;7.058;2023-04-21T12:06:55;7.55;;;5.43;;
67108;SDS011;54027;50.786;7.058;2023-04-21T12:09:25;8.38;;;5.43;;
67108;SDS011;54027;50.786;7.058;2023-04-21T12:11:53;7.70;;;5.53;;
67108;SDS011;54027;50.786;7.058;2023-04-21T12:14:23;8.55;;;5.70;;
67108;SDS011;54027;50.786;7.058;2023-04-21T12:16:51;9.95;;;5.03;;
67108;SDS011;54027;50.786;7.058;2023-04-21T12:19:33;6.30;;;4.35;;
67108;SDS011;54027;50.786;7.058;2023-04-21T12:22:00;6.60;;;4.47;;
67108;SDS011;54027;50.786;7.058;2023-04-21T12:24:26;8.30;;;4.85;;
67108;SDS011;54027;50.786;7.058;2023-04-21T12:26:51;8.15;;;5.25;;
67108;SDS011;54027;50.786;7.058;2023-04-21T12:29:17;9.93;;;5.32;;
67108;SDS011;54027;50.786;7.058;2023-04-21T12:31:43;5.30;;;3.58;;
67108;SDS011;54027;50.786;7.058;2023-04-21T12:34:08;5.32;;;4.05;;
67108;SDS011;54027;50.786;7.058;2023-04-21T12:36:34;13.80;;;3.95;;
67108;SDS011;54027;50.786;7.058;2023-04-21T12:38:59;6.13;;;4.32;;
67108;SDS011;54027;50.786;7.058;2023-04-21T12:41:24;6.47;;;4.40;;
67108;SDS011;54027;50.786;7.058;2023-04-21T12:43:50;6.15;;;3.95;;
67108;SDS011;54027;50.786;7.058;2023-04-21T12:46:16;4.82;;;3.40;;
67108;SDS011;54027;50.786;7.058;2023-04-21T12:48:41;6.20;;;4.10;;
67108;SDS011;54027;50.786;7.058;2023-04-21T12:51:06;13.32;;;4.88;;
67108;SDS011;54027;50.786;7.058;2023-04-21T12:53:32;10.90;;;5.18;;
67108;SDS011;54027;50.786;7.058;2023-04-21T12:55:57;7.47;;;5.32;;
67108;SDS011;54027;50.786;7.058;2023-04-21T12:58:23;8.25;;;5.63;;
67108;SDS011;54027;50.786;7.058;2023-04-21T13:00:48;6.90;;;5.07;;
67108;SDS011;54027;50.786;7.058;2023-04-21T13:03:13;9.98;;;5.43;;
67108;SDS011;54027;50.786;7.058;2023-04-21T13:05:39;7.78;;;5.80;;
67108;SDS011;54027;50.786;7.058;2023-04-21T13:08:04;9.55;;;7.40;;
67108;SDS011;54027;50.786;7.058;2023-04-21T13:10:30;7.72;;;5.68;;
67108;SDS011;54027;50.786;7.058;2023-04-21T13:12:55;5.90;;;4.78;;
67108;SDS011;54027;50.786;7.058;2023-04-21T13:15:21;5.30;;;4.18;;
67108;SDS011;54027;50.786;7.058;2023-04-21T13:17:46;8.93;;;5.13;;
67108;SDS011;54027;50.786;7.058;2023-04-21T13:20:11;7.05;;;5.03;;
67108;SDS011;54027;50.786;7.058;2023-04-21T13:22:37;10.43;;;5.55;;
67108;SDS011;54027;50.786;7.058;2023-04-21T13:25:03;7.82;;;6.10;;
67108;SDS011;54027;50.786;7.058;2023-04-21T13:27:28;6.90;;;5.72;;
67108;SDS011;54027;50.786;7.058;2023-04-21T13:29:55;7.45;;;5.50;;
67108;SDS011;54027;50.786;7.058;2023-04-21T13:32:21;6.85;;;5.35;;
67108;SDS011;54027;50.786;7.058;2023-04-21T13:34:46;12.52;;;6.28;;
67108;SDS011;54027;50.786;7.058;2023-04-21T13:37:12;8.32;;;5.50;;
67108;SDS011;54027;50.786;7.058;2023-04-21T13:39:40;9.32;;;6.05;;
67108;SDS011;54027;50.786;7.058;2023-04-21T13:42:06;8.60;;;6.57;;
67108;SDS011;54027;50.786;7.058;2023-04-21T13:44:31;9.52;;;7.70;;
67108;SDS011;54027;50.786;7.058;2023-04-21T13:46:57;10.75;;;7.40;;
67108;SDS011;54027;50.786;7.058;2023-04-21T13:49:23;10.77;;;7.70;;
67108;SDS011;54027;50.786;7.058;2023-04-21T13:51:48;10.88;;;7.50;;
67108;SDS011;54027;50.786;7.058;2023-04-21T13:54:14;12.85;;;6.53;;
67108;SDS011;54027;50.786;7.058;2023-04-21T13:56:39;8.98;;;6.93;;
67108;SDS011;54027;50.786;7.058;2023-04-21T13:59:05;9.82;;;7.13;;
67108;SDS011;54027;50.786;7.058;2023-04-21T14:01:30;8.98;;;6.80;;
67108;SDS011;54027;50.786;7.058;2023-04-21T14:03:55;9.65;;;7.38;;
67108;SDS011;54027;50.786;7.058;2023-04-21T14:06:21;9.38;;;6.55;;
67108;SDS011;54027;50.786;7.058;2023-04-21T14:08:46;8.77;;;6.75;;
67108;SDS011;54027;50.786;7.058;2023-04-21T14:11:12;9.38;;;6.38;;
67108;SDS011;54027;50.786;7.058;2023-04-21T14:13:37;9.60;;;6.30;;
67108;SDS011;54027;50.786;7.058;2023-04-21T14:16:03;8.32;;;6.45;;
67108;SDS011;54027;50.786;7.058;2023-04-21T14:18:28;10.35;;;5.70;;
67108;SDS011;54027;50.786;7.058;2023-04-21T14:20:53;8.80;;;5.47;;
67108;SDS011;54027;50.786;7.058;2023-04-21T14:23:19;8.55;;;5.88;;
67108;SDS011;54027;50.786;7.058;2023-04-21T14:25:44;8.50;;;5.43;;